Flight Track Log - Related Links

Times and Time Zones

All times are in EST time to prevent confusion due to time zone crossing. See the FDX1570 flight status page for this flight to view local times or setup timezone preferences in your user account.

Time Position Orientation Groundspeed Altitude Reporting Facility
EST Latitude Longitude Course Direction KTS MPH feet Rate Location/Type
Sat 04:23:20 AM 35.0333 -89.9667 180° South 156 180 1,000  Level KMEM
Sat 04:23:26 AM 35.0167 -89.9667 180° South 172 198 1,700 2,455 Climbing KMEM
Sat 04:24:26 AM 34.9833 -89.9500 158° South 216 249 3,700 2,700 Climbing KMEM
Sat 04:25:26 AM 35.0000 -89.8500 78° East 322 371 7,100 3,308 Climbing KMEM
Sat 04:26:13 AM 35.0256 -89.7758 67° East 310 357 9,600 2,131 Climbing Memphis Center
Sat 04:27:13 AM 35.0647 -89.6589 68° East 371 427 10,900 2,100 Climbing Memphis Center
Sat 04:28:13 AM 35.1089 -89.5267 68° East 410 472 13,800 2,628 Climbing Memphis Center
Sat 04:29:14 AM 35.1553 -89.3889 68° East 426 490 16,200 2,479 Climbing Memphis Center
Sat 04:30:14 AM 35.2025 -89.2464 68° East 441 507 18,800 2,100 Climbing Memphis Center
Sat 04:31:14 AM 35.2433 -89.1217 68° East 456 525 20,400 1,686 Climbing Memphis Center
Sat 04:32:15 AM 35.3083 -88.9747 62° Northeast 480 552 22,200 1,686 Climbing Memphis Center
Sat 04:33:15 AM 35.3808 -88.8253 59° Northeast 498 573 23,800 1,650 Climbing Memphis Center
Sat 04:34:15 AM 35.4542 -88.6719 60° Northeast 513 590 25,500 1,500 Climbing Memphis Center
Sat 04:35:15 AM 35.5406 -88.5247 54° Northeast 527 606 26,800 1,289 Climbing Memphis Center
Sat 04:36:16 AM 35.6278 -88.3753 54° Northeast 536 617 28,100 1,388 Climbing Memphis Center
Sat 04:37:16 AM 35.7167 -88.2208 55° Northeast 547 629 29,600 1,700 Climbing Memphis Center
Sat 04:38:16 AM 35.8122 -88.0628 53° Northeast 554 638 31,500 1,850 Climbing Memphis Center
Sat 04:39:16 AM 35.9028 -87.9064 54° Northeast 555 639 33,300 1,785 Climbing Memphis Center
Sat 04:40:17 AM 35.9947 -87.7517 54° Northeast 554 638 35,100 1,636 Climbing Memphis Center
Sat 04:41:17 AM 36.0844 -87.5961 54° Northeast 552 635 36,600 552 Climbing Memphis Center
Sat 04:47:21 AM 36.6396 -86.6245 54° Northeast 562 647 39,000 350 Climbing FlightAware ADS-B
Sat 04:48:09 AM 36.6143 -86.6694 235° Southwest 562 647 39,000  Level FlightAware ADS-B
Sat 04:50:20 AM 36.9057 -86.1499 55° Northeast 560 644 39,000  Level FlightAware ADS-B
Sat 04:51:20 AM 36.9936 -85.9932 55° Northeast 559 643 39,000  Level FlightAware ADS-B
Sat 04:52:22 AM 37.0842 -85.8286 55° Northeast 559 643 39,000  Level FlightAware ADS-B
Sat 04:53:22 AM 37.1720 -85.6688 55° Northeast 559 643 39,000  Level FlightAware ADS-B
Sat 04:54:21 AM 37.2507 -85.5245 56° Northeast 559 643 39,000  Level FlightAware ADS-B
Sat 04:55:21 AM 37.3422 -85.3557 56° Northeast 560 644 39,000  Level FlightAware ADS-B
Sat 04:56:22 AM 37.4007 -85.2480 56° Northeast 561 646 39,000  Level FlightAware ADS-B
Sat 04:57:22 AM 37.5222 -85.0241 56° Northeast 561 646 39,000  Level FlightAware ADS-B
Sat 04:58:22 AM 37.6059 -84.8670 56° Northeast 563 648 39,000  Level FlightAware ADS-B
Sat 04:59:22 AM 37.6960 -84.6980 56° Northeast 563 648 39,000  Level FlightAware ADS-B
Sat 05:00:20 AM 37.7811 -84.5369 56° Northeast 565 650 39,000  Level FlightAware ADS-B
Sat 05:01:20 AM 37.8681 -84.3721 56° Northeast 565 650 39,000  Level FlightAware ADS-B
Sat 05:01:59 AM 37.8914 -84.3280 56° Northeast 566 651 39,000  Level FlightAware ADS-B
Sat 05:02:38 AM 37.9769 -84.1654 56° Northeast 566 651 39,000  Level FlightAware ADS-B
Sat 05:05:15 AM 38.1845 -83.7676 56° Northeast 571 657 39,000  Level FlightAware ADS-B
Sat 05:05:54 AM 38.2641 -83.6132 57° Northeast 572 658 39,000  Level FlightAware ADS-B
Sat 05:06:36 AM 38.3244 -83.4950 57° Northeast 572 658 39,000  Level FlightAware ADS-B
Sat 05:07:18 AM 38.3824 -83.3823 57° Northeast 571 657 39,000  Level FlightAware ADS-B
Sat 05:07:57 AM 38.4392 -83.2723 57° Northeast 572 658 39,000  Level FlightAware ADS-B
Sat 05:08:30 AM 38.4845 -83.1820 57° Northeast 572 658 39,000  Level FlightAware ADS-B
Sat 05:09:11 AM 38.5509 -83.0591 55° Northeast 572 658 39,000  Level FlightAware ADS-B
Sat 05:09:42 AM 38.5957 -82.9723 57° Northeast 573 659 39,000  Level FlightAware ADS-B
Sat 05:10:23 AM 38.6523 -82.8655 56° Northeast 573 659 39,000  Level FlightAware ADS-B
Sat 05:11:13 AM 38.7297 -82.7164 56° Northeast 572 658 39,000  Level FlightAware ADS-B
Sat 05:11:52 AM 38.7881 -82.6038 56° Northeast 572 658 39,000  Level FlightAware ADS-B
Sat 05:12:46 AM 38.8659 -82.4539 56° Northeast 572 658 39,000  Level FlightAware ADS-B
Sat 05:13:26 AM 38.9180 -82.3521 57° Northeast 571 657 39,000  Level FlightAware ADS-B
Sat 05:14:04 AM 38.9804 -82.2305 57° Northeast 571 657 39,000  Level FlightAware ADS-B
Sat 05:14:58 AM 39.0578 -82.0804 56° Northeast 571 657 39,000  Level FlightAware ADS-B
Sat 05:15:39 AM 39.1185 -81.9610 57° Northeast 571 657 39,000  Level FlightAware ADS-B
Sat 05:16:36 AM 39.1390 -81.9210 56° Northeast 572 658 39,000  Level FlightAware ADS-B
Sat 05:17:24 AM 39.2586 -81.6848 57° Northeast 571 657 39,000  Level FlightAware ADS-B
Sat 05:18:29 AM 39.3481 -81.5053 57° Northeast 570 656 39,000  Level Indianapolis Center
Sat 05:19:29 AM 39.4350 -81.3319 57° Northeast 570 656 39,000  Level Indianapolis Center
Sat 05:20:30 AM 39.5217 -81.1578 57° Northeast 572 658 39,000  Level Indianapolis Center
Sat 05:21:30 AM 39.6067 -80.9844 57° Northeast 570 656 39,000  Level Indianapolis Center
Sat 05:22:31 AM 39.6925 -80.8103 57° Northeast 572 658 39,000  Level Indianapolis Center
Sat 05:23:42 AM 39.7897 -80.6153 57° Northeast 566 651 39,000  Level Cleveland Center
Sat 05:29:02 AM 40.2584 -79.6363 57° Northeast 574 661 39,000  Level FlightAware ADS-B
Sat 05:29:40 AM 40.3070 -79.5358 58° Northeast 575 662 39,000  Level FlightAware ADS-B
Sat 05:30:45 AM 40.3892 -79.3575 58° Northeast 574 661 39,000  Level Cleveland Center
Sat 05:31:45 AM 40.4658 -79.1925 59° Northeast 574 661 39,000  Level Cleveland Center
Sat 05:34:52 AM 40.7392 -78.6017 59° Northeast 572 658 39,000 -157 Level FlightAware ADS-B (KWWD)
Sat 05:40:40 AM 41.2034 -77.5690 59° Northeast 564 649 37,600 -740 Descending FlightAware ADS-B
Sat 05:42:34 AM 41.3578 -77.2177 60° Northeast 567 652 33,300 -1,986 Descending FlightAware ADS-B (KWWD)
Sat 05:43:05 AM 41.3517 -77.2298 236° Southwest 573 659 32,800 -1,026 Descending FlightAware ADS-B
Sat 05:43:50 AM 41.4475 -77.0361 236° Southwest 564 649 32,000 -1,029 Descending Cleveland Center
Sat 05:44:50 AM 41.5633 -76.8431 51° Northeast 559 643 31,000 -843 Descending Cleveland Center
Sat 05:45:51 AM 41.6433 -76.7058 52° Northeast 555 639 30,300 -793 Descending Cleveland Center
Sat 05:46:51 AM 41.7358 -76.5419 53° Northeast 554 638 29,400 -1,000 Descending Cleveland Center
Sat 05:47:51 AM 41.8272 -76.3794 53° Northeast 551 634 28,300 -1,507 Descending Cleveland Center
Sat 05:50:18 AM 42.0561 -75.9731 53° Northeast 541 623 24,200 -1,246 Descending Boston Center
Sat 05:51:18 AM 42.1469 -75.8117 53° Northeast 541 623 24,000 -303 Descending Boston Center
Sat 05:52:17 AM 42.2364 -75.6494 53° Northeast 541 623 23,600 -1,200 Descending Boston Center
Sat 05:53:18 AM 42.2944 -75.4594 68° East 545 627 21,600 -1,950 Descending Boston Center
Sat 05:54:17 AM 42.3439 -75.2742 70° East 535 616 19,700 -1,950 Descending Boston Center
Sat 05:55:18 AM 42.3981 -75.0944 68° East 524 603 17,700 -1,850 Descending Boston Center
Sat 05:56:17 AM 42.4472 -74.9250 68° East 494 568 16,000 -1,664 Descending Boston Center
Sat 05:57:17 AM 42.4931 -74.7739 68° East 384 442 14,400 -1,524 Descending Boston Center
Sat 05:57:20 AM 42.4931 -74.7725 90° East 417 480 14,400 -1,000 Level Boston Center
Sat 05:57:23 AM 42.4950 -74.7631 74° East 381 438 14,300 -1,300 Descending Boston Center
Sat 05:58:20 AM 42.5325 -74.6417 67° East 375 432 13,100 -1,333 Descending Boston Center
Sat 05:58:26 AM 42.5331 -74.6336 85° East 354 407 12,900 -1,525 Descending Boston Center
Sat 05:59:19 AM 42.5622 -74.5267 70° East 328 377 11,600 -1,627 Descending Boston Center
Sat 05:59:25 AM 42.5594 -74.5178 113° Southeast 308 354 11,300 -1,869 Descending Boston Center
Sat 06:00:20 AM 42.5678 -74.4111 84° East 308 354 9,700 -1,869 Descending Boston Center
Sat 06:00:26 AM 42.5675 -74.3956 91° East 300 345 9,400 -1,759 Descending Boston Center
Sat 06:01:18 AM 42.5736 -74.2983 85° East 300 345 8,000 -1,672 Descending Boston Center
Sat 06:01:27 AM 42.5742 -74.2814 87° East 301 346 7,700 -1,548 Descending Boston Center
Sat 06:02:20 AM 42.5786 -74.1883 86° East 294 338 6,400 -1,424 Descending Boston Center
Sat 06:02:26 AM 42.5775 -74.1719 95° East 291 335 6,300 -1,220 Descending Boston Center
Sat 06:03:19 AM 42.5831 -74.0850 85° East 276 318 5,200 -1,300 Descending Boston Center
Sat 06:03:26 AM 42.5833 -74.0722 88° East 267 307 5,000 -871 Descending Boston Center
Sat 06:04:21 AM 42.5894 -73.9908 84° East 229 264 4,300 -787 Descending Boston Center
Sat 06:04:27 AM 42.5886 -73.9867 105° East 214 246 4,200 -1,500 Descending Boston Center
Sat 06:05:21 AM 42.5928 -73.9131 86° East 209 241 2,800 -1,429 Descending Boston Center
Sat 06:05:30 AM 42.5919 -73.9094 107° East 201 231 2,700 -787 Descending Boston Center
Sat 06:06:22 AM 42.5975 -73.8411 84° East 195 224 2,000 -787 Descending Boston Center
Sat 06:06:31 AM 42.5967 -73.8381 110° East 182 209 1,900 -103 Descending Boston Center
Sat 06:07:20 AM 42.6361 -73.8047 32° Northeast 179 206 1,900  Level Boston Center
Sat 06:07:29 AM 42.6422 -73.8011 23° Northeast 174 200 1,900 -393 Level Boston Center
Sat 06:08:21 AM 42.6800 -73.8014 360° North 159 183 1,500 -492 Descending Boston Center
Sat 06:08:30 AM 42.6831 -73.8006 11° North 138 159 1,400 -689 Descending Boston Center
Sat 06:09:22 AM 42.7139 -73.8033 356° North 127 146 800 -689 Descending Boston Center
Sat 06:09:31 AM 42.7169 -73.8031 North 116 133 700 -610 Descending Boston Center
Sat 06:10:21 AM 42.7489 -73.8039 359° North 123 142 200 -600 Descending Boston Center

Login

Don't have an account? Register now (free) for customized features, flight alerts, and more!